createdAt,value
2023-02-28T00:01:33.338Z,3.78
2023-02-28T00:04:01.849Z,3.76
2023-02-28T00:06:31.438Z,3.81
2023-02-28T00:08:59.509Z,3.74
2023-02-28T00:11:27.915Z,3.88
2023-02-28T00:13:56.361Z,3.92
2023-02-28T00:16:25.035Z,3.89
2023-02-28T00:18:53.282Z,3.78
2023-02-28T00:21:22.154Z,3.85
2023-02-28T00:23:51.563Z,3.78
2023-02-28T00:26:21.796Z,3.77
2023-02-28T00:28:51.256Z,3.64
2023-02-28T00:31:19.468Z,3.72
2023-02-28T00:33:50.012Z,3.79
2023-02-28T00:36:18.226Z,3.80
2023-02-28T00:38:46.319Z,3.73
2023-02-28T00:41:15.847Z,3.70
2023-02-28T00:43:43.986Z,3.71
2023-02-28T00:46:12.840Z,3.70
2023-02-28T00:48:40.917Z,3.64
2023-02-28T00:51:08.952Z,3.61
2023-02-28T00:53:37.119Z,3.53
2023-02-28T00:56:05.709Z,3.56
2023-02-28T00:58:35.168Z,3.56
2023-02-28T01:01:03.256Z,3.51
2023-02-28T01:03:31.526Z,3.46
2023-02-28T01:06:00.323Z,3.39
2023-02-28T01:08:28.906Z,3.31
2023-02-28T01:10:57.493Z,3.36
2023-02-28T01:13:26.446Z,3.35
2023-02-28T01:15:58.142Z,3.34
2023-02-28T01:18:26.759Z,3.32
2023-02-28T01:20:55.170Z,3.29
2023-02-28T01:23:25.206Z,3.27
2023-02-28T01:25:53.877Z,3.21
2023-02-28T01:28:22.149Z,3.20
2023-02-28T01:30:52.337Z,3.17
2023-02-28T01:33:22.049Z,3.12
2023-02-28T01:35:50.222Z,3.11
2023-02-28T01:38:23.096Z,3.07
2023-02-28T01:40:51.998Z,3.08
2023-02-28T01:43:24.769Z,3.10
2023-02-28T01:45:54.824Z,3.07
2023-02-28T01:48:28.969Z,3.08
2023-02-28T01:51:01.326Z,3.08
2023-02-28T01:53:34.574Z,3.07
2023-02-28T01:56:06.037Z,3.09
2023-02-28T01:58:34.454Z,3.07
2023-02-28T02:01:04.037Z,2.92
2023-02-28T02:03:33.559Z,3.00
2023-02-28T02:06:01.614Z,3.01
2023-02-28T02:08:31.674Z,2.94
2023-02-28T02:11:02.098Z,2.94
2023-02-28T02:13:47.736Z,2.93
2023-02-28T02:16:33.310Z,2.78
2023-02-28T02:19:17.293Z,2.74
2023-02-28T02:22:13.489Z,2.73
2023-02-28T02:25:16.239Z,2.71
2023-02-28T02:28:13.835Z,2.69
2023-02-28T02:31:07.493Z,2.61
2023-02-28T02:34:26.051Z,2.49
2023-02-28T02:37:04.874Z,2.43
2023-02-28T02:39:43.018Z,2.42
2023-02-28T02:42:17.885Z,2.31
2023-02-28T02:44:50.735Z,2.30
2023-02-28T02:47:23.026Z,2.31
2023-02-28T02:49:54.789Z,2.16
2023-02-28T02:52:29.908Z,2.25
2023-02-28T02:55:00.334Z,2.21
2023-02-28T02:57:35.154Z,2.19
2023-02-28T03:00:06.223Z,2.18
2023-02-28T03:02:35.457Z,2.17
2023-02-28T03:05:07.776Z,2.08
2023-02-28T03:07:37.425Z,2.04
2023-02-28T03:10:20.858Z,2.02
2023-02-28T03:13:06.213Z,1.98
2023-02-28T03:15:47.661Z,1.88
2023-02-28T03:18:25.592Z,1.82
2023-02-28T03:21:02.501Z,1.85
2023-02-28T03:23:40.576Z,1.80
2023-02-28T03:26:18.529Z,1.79
2023-02-28T03:28:55.755Z,1.81
2023-02-28T03:31:29.778Z,1.76
2023-02-28T03:34:03.913Z,1.74
2023-02-28T03:36:42.837Z,1.74
2023-02-28T03:39:16.367Z,1.66
2023-02-28T03:41:50.683Z,1.75
2023-02-28T03:44:24.056Z,1.76
2023-02-28T03:47:02.809Z,1.72
2023-02-28T03:49:35.376Z,1.70
2023-02-28T03:52:06.119Z,1.65
2023-02-28T03:54:39.826Z,1.62
2023-02-28T03:57:18.209Z,1.61
2023-02-28T03:59:50.822Z,1.63
2023-02-28T04:02:19.611Z,1.51
2023-02-28T04:04:49.418Z,1.55
2023-02-28T04:07:18.176Z,1.50
2023-02-28T04:09:47.708Z,1.53
2023-02-28T04:12:15.788Z,1.35
2023-02-28T04:14:43.925Z,1.42
2023-02-28T04:17:12.070Z,1.42
2023-02-28T04:19:40.197Z,1.39
2023-02-28T04:22:08.347Z,1.39
2023-02-28T04:24:36.572Z,1.40
2023-02-28T04:27:06.022Z,1.37
2023-02-28T04:29:34.502Z,1.37
2023-02-28T04:32:04.027Z,1.34
2023-02-28T04:34:34.061Z,1.23
2023-02-28T04:37:12.939Z,1.18
2023-02-28T04:39:42.307Z,1.25
2023-02-28T04:42:12.622Z,1.23
2023-02-28T04:44:40.660Z,1.17
2023-02-28T04:47:08.822Z,1.19
2023-02-28T04:49:36.876Z,1.18
2023-02-28T04:52:04.920Z,1.16
2023-02-28T04:54:32.973Z,1.12
2023-02-28T04:57:02.574Z,1.07
2023-02-28T04:59:31.997Z,0.96
2023-02-28T05:02:00.049Z,0.89
2023-02-28T05:04:28.313Z,0.90
2023-02-28T05:06:56.422Z,0.91
2023-02-28T05:09:24.546Z,0.83
2023-02-28T05:11:52.612Z,0.77
2023-02-28T05:14:20.698Z,0.71
2023-02-28T05:16:50.104Z,0.54
2023-02-28T05:19:18.283Z,0.50
2023-02-28T05:21:53.234Z,0.34
2023-02-28T05:24:23.825Z,0.38
2023-02-28T05:26:53.881Z,0.40
2023-02-28T05:29:22.024Z,0.38
2023-02-28T05:31:51.835Z,0.44
2023-02-28T05:34:20.332Z,0.37
2023-02-28T05:36:48.421Z,0.41
2023-02-28T05:39:16.510Z,0.42
2023-02-28T05:41:45.702Z,0.25
2023-02-28T05:44:13.808Z,0.38
2023-02-28T05:46:41.911Z,0.43
2023-02-28T05:49:11.371Z,0.41
2023-02-28T05:51:41.018Z,0.46
2023-02-28T05:54:09.763Z,0.44
2023-02-28T05:56:40.132Z,0.47
2023-02-28T05:59:08.533Z,0.24
2023-02-28T06:01:38.645Z,0.31
2023-02-28T06:04:14.315Z,0.42
2023-02-28T06:06:49.713Z,0.52
2023-02-28T06:09:17.865Z,0.55
2023-02-28T06:11:46.168Z,0.94
2023-02-28T06:14:17.882Z,1.13
2023-02-28T06:16:46.482Z,1.17
2023-02-28T06:19:16.110Z,1.17
2023-02-28T06:21:44.833Z,1.26
2023-02-28T06:24:14.255Z,1.11
2023-02-28T06:26:42.392Z,1.27
2023-02-28T06:29:10.455Z,1.42
2023-02-28T06:31:39.463Z,1.43
2023-02-28T06:34:07.572Z,1.41
2023-02-28T06:36:35.759Z,1.46
2023-02-28T06:39:03.873Z,1.60
2023-02-28T06:41:53.550Z,1.61
2023-02-28T06:44:24.212Z,1.50
2023-02-28T06:46:52.329Z,1.55
2023-02-28T06:49:20.480Z,1.50
2023-02-28T06:51:48.502Z,1.54
2023-02-28T06:54:16.598Z,1.65
2023-02-28T06:56:46.063Z,1.62
2023-02-28T06:59:14.176Z,1.69
2023-02-28T07:01:42.733Z,1.78
2023-02-28T07:04:11.179Z,1.48
2023-02-28T07:06:39.233Z,1.65
2023-02-28T07:09:10.406Z,1.69
2023-02-28T07:11:38.530Z,1.82
2023-02-28T07:14:08.017Z,1.88
2023-02-28T07:16:36.167Z,1.79
2023-02-28T07:19:04.294Z,1.88
2023-02-28T07:21:32.585Z,2.04
2023-02-28T07:24:00.692Z,2.13
2023-02-28T07:26:28.956Z,2.24
2023-02-28T07:28:56.977Z,2.33
2023-02-28T07:31:26.494Z,2.34
2023-02-28T07:33:55.014Z,2.35
2023-02-28T07:36:23.217Z,2.48
2023-02-28T07:38:51.929Z,2.53
2023-02-28T07:41:21.573Z,2.49
2023-02-28T07:43:49.972Z,2.60
2023-02-28T07:46:21.362Z,2.66
2023-02-28T07:48:50.909Z,2.73
2023-02-28T07:51:19.286Z,2.82
2023-02-28T07:53:47.474Z,2.91
2023-02-28T07:56:15.483Z,2.91
2023-02-28T07:58:43.664Z,2.98
2023-02-28T08:01:12.898Z,3.07
2023-02-28T08:03:42.067Z,3.19
2023-02-28T08:06:18.701Z,3.09
2023-02-28T08:08:46.901Z,3.31
2023-02-28T08:11:14.942Z,3.34
2023-02-28T08:13:45.014Z,3.52
2023-02-28T08:16:16.518Z,3.43
2023-02-28T08:18:44.703Z,3.52
2023-02-28T08:21:14.175Z,3.64
2023-02-28T08:23:42.360Z,3.75
2023-02-28T08:26:10.454Z,3.49
2023-02-28T08:28:38.515Z,3.82
2023-02-28T08:31:10.320Z,3.89
2023-02-28T08:33:40.076Z,3.61
2023-02-28T08:36:09.762Z,3.88
2023-02-28T08:38:39.676Z,3.96
2023-02-28T08:41:10.133Z,4.26
2023-02-28T08:43:38.610Z,4.28
2023-02-28T08:46:07.805Z,4.49
2023-02-28T08:48:38.965Z,4.26
2023-02-28T08:51:12.282Z,4.31
2023-02-28T08:53:42.535Z,4.19
2023-02-28T08:56:13.258Z,4.26
2023-02-28T08:58:42.026Z,4.43
2023-02-28T09:01:13.088Z,4.68
2023-02-28T09:03:42.557Z,4.68
2023-02-28T09:06:12.436Z,4.61
2023-02-28T09:08:42.469Z,4.78
2023-02-28T09:11:10.945Z,4.99
2023-02-28T09:13:41.974Z,5.01
2023-02-28T09:16:13.322Z,4.57
2023-02-28T09:18:42.551Z,4.84
2023-02-28T09:21:14.590Z,5.01
2023-02-28T09:23:45.057Z,4.75
2023-02-28T09:26:16.497Z,4.53
2023-02-28T09:28:44.648Z,4.55
2023-02-28T09:31:15.808Z,4.36
2023-02-28T09:33:44.015Z,4.79
2023-02-28T09:36:12.119Z,5.09
2023-02-28T09:38:40.771Z,4.99
2023-02-28T09:41:16.769Z,4.92
2023-02-28T09:43:48.008Z,4.65
2023-02-28T09:46:33.676Z,5.10
2023-02-28T09:49:04.678Z,5.43
2023-02-28T09:51:42.417Z,5.39
2023-02-28T09:54:19.809Z,5.38
2023-02-28T09:56:54.345Z,5.16
2023-02-28T09:59:38.249Z,5.38
2023-02-28T10:02:15.820Z,5.32
2023-02-28T10:04:52.646Z,5.38
2023-02-28T10:07:39.947Z,5.10
2023-02-28T10:10:22.510Z,5.21
2023-02-28T10:12:54.872Z,5.22
2023-02-28T10:15:27.386Z,5.57
2023-02-28T10:18:08.452Z,5.30
2023-02-28T10:20:39.656Z,5.01
2023-02-28T10:23:15.300Z,5.05
2023-02-28T10:25:49.110Z,4.57
2023-02-28T10:28:20.084Z,4.78
2023-02-28T10:30:50.254Z,5.08
2023-02-28T10:33:23.706Z,5.37
2023-02-28T10:35:51.945Z,5.29
2023-02-28T10:38:22.360Z,4.85
2023-02-28T10:40:50.534Z,5.05
2023-02-28T10:43:25.721Z,5.33
2023-02-28T10:46:04.546Z,5.31
2023-02-28T10:48:36.401Z,5.23
2023-02-28T10:51:05.974Z,5.53
2023-02-28T10:53:57.578Z,5.59
2023-02-28T10:56:28.407Z,5.52
2023-02-28T10:58:59.731Z,5.28
2023-02-28T11:01:39.157Z,5.17
2023-02-28T11:04:22.600Z,5.29
2023-02-28T11:06:59.973Z,5.23
2023-02-28T11:09:32.810Z,5.09
2023-02-28T11:12:01.512Z,5.35
2023-02-28T11:14:33.482Z,5.34
2023-02-28T11:17:17.389Z,5.32
2023-02-28T11:19:49.863Z,5.04
2023-02-28T11:22:22.256Z,5.02
2023-02-28T11:24:55.026Z,5.23
2023-02-28T11:27:48.033Z,5.28
2023-02-28T11:30:36.242Z,5.15
2023-02-28T11:33:23.642Z,5.17
2023-02-28T11:35:53.449Z,5.24
2023-02-28T11:38:21.707Z,4.42
2023-02-28T11:41:01.854Z,5.22
2023-02-28T11:43:43.185Z,5.47
2023-02-28T11:46:23.435Z,5.95
2023-02-28T11:49:00.743Z,6.03
2023-02-28T11:51:34.743Z,6.01
2023-02-28T11:54:26.788Z,5.67
2023-02-28T11:56:59.851Z,6.04
2023-02-28T11:59:49.137Z,5.95
2023-02-28T12:02:30.796Z,5.92
2023-02-28T12:05:20.078Z,6.37
2023-02-28T12:07:57.470Z,6.59
2023-02-28T12:10:28.302Z,6.70
2023-02-28T12:13:10.541Z,6.47
2023-02-28T12:16:19.783Z,6.78
2023-02-28T12:19:05.778Z,7.28
2023-02-28T12:21:47.482Z,7.88
2023-02-28T12:24:39.995Z,9.10
2023-02-28T12:27:12.162Z,9.84
2023-02-28T12:29:49.141Z,9.93
2023-02-28T12:32:22.791Z,11.50
2023-02-28T12:34:57.298Z,10.60
2023-02-28T12:37:30.248Z,11.60
2023-02-28T12:40:06.630Z,12.92
2023-02-28T12:42:40.818Z,13.17
2023-02-28T12:45:14.545Z,13.53
2023-02-28T12:47:46.854Z,12.90
2023-02-28T12:50:17.672Z,13.24
2023-02-28T12:52:55.389Z,13.25
2023-02-28T12:55:29.679Z,12.76
2023-02-28T12:58:10.579Z,12.84
2023-02-28T13:00:47.150Z,12.64
2023-02-28T13:03:52.897Z,12.68
2023-02-28T13:06:43.918Z,12.07
2023-02-28T13:09:13.644Z,12.14
2023-02-28T13:11:44.943Z,11.90
2023-02-28T13:14:25.742Z,11.82
2023-02-28T13:17:00.634Z,11.39
2023-02-28T13:19:31.493Z,11.89
2023-02-28T13:22:03.087Z,11.88
2023-02-28T13:24:50.523Z,11.37
2023-02-28T13:27:34.975Z,11.66
2023-02-28T13:30:03.771Z,10.99
2023-02-28T13:32:40.168Z,11.34
2023-02-28T13:35:17.132Z,11.24
2023-02-28T13:37:50.913Z,11.07
2023-02-28T13:40:38.199Z,11.30
2023-02-28T13:43:10.619Z,11.05
2023-02-28T13:45:40.796Z,11.16
2023-02-28T13:48:20.138Z,10.78
2023-02-28T13:50:49.068Z,10.63
2023-02-28T13:54:00.285Z,10.82
2023-02-28T13:56:41.825Z,10.83
2023-02-28T13:59:24.808Z,10.61
2023-02-28T14:02:15.957Z,10.77
2023-02-28T14:05:02.798Z,10.12
2023-02-28T14:07:36.563Z,10.28
2023-02-28T14:10:09.653Z,10.38
2023-02-28T14:13:03.234Z,10.03
2023-02-28T14:15:49.225Z,10.44
2023-02-28T14:18:27.036Z,10.16
2023-02-28T14:21:00.265Z,8.75
2023-02-28T14:23:57.930Z,9.34
2023-02-28T14:26:53.588Z,8.76
2023-02-28T14:29:39.529Z,9.20
2023-02-28T14:32:17.098Z,9.61
2023-02-28T14:34:53.133Z,9.40
2023-02-28T14:37:27.119Z,9.38
2023-02-28T14:39:57.306Z,9.46
2023-02-28T14:42:35.024Z,8.97
2023-02-28T14:45:03.879Z,9.34
2023-02-28T14:47:34.759Z,9.20
2023-02-28T14:50:06.236Z,9.36
2023-02-28T14:52:35.266Z,8.46
2023-02-28T14:55:08.179Z,8.85
2023-02-28T14:57:42.919Z,9.19
2023-02-28T15:00:18.385Z,7.15
2023-02-28T15:02:46.636Z,8.61
2023-02-28T15:05:34.275Z,8.23
2023-02-28T15:08:14.909Z,8.60
2023-02-28T15:10:45.727Z,8.47
2023-02-28T15:13:17.149Z,8.71
2023-02-28T15:16:05.239Z,8.21
2023-02-28T15:18:46.896Z,8.75
2023-02-28T15:21:19.220Z,8.66
2023-02-28T15:23:53.674Z,8.58
2023-02-28T15:26:24.681Z,8.95
2023-02-28T15:28:59.581Z,8.46
2023-02-28T15:31:37.053Z,8.37
2023-02-28T15:34:21.920Z,8.24
2023-02-28T15:36:51.346Z,8.04
2023-02-28T15:39:24.371Z,8.03
2023-02-28T15:41:52.974Z,8.83
2023-02-28T15:44:31.259Z,8.82
2023-02-28T15:47:03.300Z,8.65
2023-02-28T15:49:44.916Z,8.73
2023-02-28T15:52:17.903Z,8.69
2023-02-28T15:54:47.064Z,8.32
2023-02-28T15:57:19.738Z,8.21
2023-02-28T15:59:54.059Z,8.52
2023-02-28T16:02:24.235Z,8.07
2023-02-28T16:05:04.294Z,7.94
2023-02-28T16:07:32.608Z,7.83
2023-02-28T16:10:01.315Z,7.51
2023-02-28T16:12:31.922Z,7.32
2023-02-28T16:15:04.055Z,7.35
2023-02-28T16:17:35.910Z,7.36
2023-02-28T16:20:14.678Z,7.16
2023-02-28T16:22:43.852Z,6.76
2023-02-28T16:25:14.254Z,6.83
2023-02-28T16:27:44.017Z,6.93
2023-02-28T16:30:21.053Z,6.76
2023-02-28T16:32:50.189Z,6.72
2023-02-28T16:35:18.990Z,6.48
2023-02-28T16:37:47.723Z,6.17
2023-02-28T16:40:17.529Z,6.26
2023-02-28T16:42:47.741Z,6.13
2023-02-28T16:45:24.032Z,6.02
2023-02-28T16:47:52.538Z,5.82
2023-02-28T16:50:22.609Z,5.65
2023-02-28T16:52:53.210Z,5.71
2023-02-28T16:55:21.538Z,5.56
2023-02-28T16:57:53.985Z,5.58
2023-02-28T17:00:24.823Z,5.56
2023-02-28T17:02:53.201Z,5.55
2023-02-28T17:05:21.822Z,5.52
2023-02-28T17:07:50.720Z,5.53
2023-02-28T17:10:21.602Z,5.41
2023-02-28T17:12:50.175Z,5.14
2023-02-28T17:15:20.676Z,5.01
2023-02-28T17:17:51.185Z,4.97
2023-02-28T17:20:23.652Z,4.84
2023-02-28T17:22:52.405Z,4.78
2023-02-28T17:25:20.806Z,4.70
2023-02-28T17:27:49.607Z,4.73
2023-02-28T17:30:19.751Z,4.68
2023-02-28T17:32:48.212Z,4.55
2023-02-28T17:35:18.178Z,4.51
2023-02-28T17:37:46.472Z,4.50
2023-02-28T17:40:16.700Z,4.47
2023-02-28T17:42:45.252Z,4.45
2023-02-28T17:45:14.258Z,4.36
2023-02-28T17:47:44.130Z,4.33
2023-02-28T17:50:17.028Z,4.39
2023-02-28T17:52:47.329Z,4.43
2023-02-28T17:55:15.983Z,4.32
2023-02-28T17:57:44.227Z,4.28
2023-02-28T18:00:14.821Z,4.26
2023-02-28T18:02:44.051Z,4.19
2023-02-28T18:05:12.773Z,4.21
2023-02-28T18:07:41.755Z,4.19
2023-02-28T18:10:16.231Z,4.17
2023-02-28T18:12:45.037Z,4.21
2023-02-28T18:15:13.210Z,4.17
2023-02-28T18:17:41.497Z,4.02
2023-02-28T18:20:11.914Z,4.04
2023-02-28T18:22:40.496Z,4.03
2023-02-28T18:25:14.703Z,4.02
2023-02-28T18:27:54.155Z,3.96
2023-02-28T18:30:23.250Z,3.94
2023-02-28T18:32:51.703Z,3.88
2023-02-28T18:35:34.888Z,3.88
2023-02-28T18:38:05.636Z,3.88
2023-02-28T18:40:35.252Z,3.79
2023-02-28T18:43:03.660Z,3.78
2023-02-28T18:45:32.319Z,3.75
2023-02-28T18:48:00.516Z,3.70
2023-02-28T18:50:29.653Z,3.66
2023-02-28T18:52:59.277Z,3.66
2023-02-28T18:55:27.980Z,3.61
2023-02-28T18:57:57.561Z,3.53
2023-02-28T19:00:26.048Z,3.48
2023-02-28T19:02:54.212Z,3.46
2023-02-28T19:05:22.659Z,3.48
2023-02-28T19:07:51.637Z,3.45
2023-02-28T19:10:19.979Z,3.43
2023-02-28T19:12:49.294Z,3.42
2023-02-28T19:15:19.031Z,3.42
2023-02-28T19:17:47.363Z,3.34
2023-02-28T19:20:15.554Z,3.31
2023-02-28T19:22:44.316Z,3.28
2023-02-28T19:25:12.760Z,3.23
2023-02-28T19:27:40.959Z,3.21
2023-02-28T19:30:10.926Z,3.20
2023-02-28T19:32:40.505Z,3.23
2023-02-28T19:35:09.438Z,3.19
2023-02-28T19:37:39.967Z,3.20
2023-02-28T19:40:09.990Z,3.16
2023-02-28T19:42:38.586Z,3.14
2023-02-28T19:45:10.202Z,3.13
2023-02-28T19:47:41.736Z,3.12
2023-02-28T19:50:12.341Z,3.08
2023-02-28T19:55:14.088Z,3.06
2023-02-28T19:57:42.132Z,3.06
2023-02-28T20:00:12.359Z,3.03
2023-02-28T20:02:43.940Z,3.00
2023-02-28T20:05:13.449Z,2.99
2023-02-28T20:07:41.480Z,2.97
2023-02-28T20:10:11.004Z,2.99
2023-02-28T20:12:39.150Z,2.97
2023-02-28T20:15:08.570Z,2.93
2023-02-28T20:17:36.767Z,2.78
2023-02-28T20:20:05.561Z,2.70
2023-02-28T20:22:38.264Z,2.74
2023-02-28T20:25:08.112Z,2.74
2023-02-28T20:27:36.391Z,2.81
2023-02-28T20:30:05.798Z,2.80
2023-02-28T20:32:34.006Z,2.78
2023-02-28T20:35:02.119Z,2.68
2023-02-28T20:37:30.316Z,2.67
2023-02-28T20:40:00.079Z,2.69
2023-02-28T20:42:28.185Z,2.71
2023-02-28T20:44:56.219Z,2.72
2023-02-28T20:47:24.271Z,2.67
2023-02-28T20:49:52.369Z,2.73
2023-02-28T20:52:20.480Z,2.75
2023-02-28T20:54:48.559Z,2.75
2023-02-28T20:57:17.946Z,2.75
2023-02-28T20:59:46.102Z,2.74
2023-02-28T21:02:17.688Z,2.75
2023-02-28T21:04:45.952Z,2.74
2023-02-28T21:07:13.961Z,2.75
2023-02-28T21:09:42.313Z,2.72
2023-02-28T21:12:11.509Z,2.66
2023-02-28T21:14:41.567Z,2.61
2023-02-28T21:17:10.523Z,2.40
2023-02-28T21:19:38.648Z,2.39
2023-02-28T21:22:06.772Z,2.46
2023-02-28T21:24:34.853Z,2.41
2023-02-28T21:27:02.930Z,2.45
2023-02-28T21:29:31.051Z,2.64
2023-02-28T21:32:00.631Z,2.61
2023-02-28T21:34:29.576Z,2.57
2023-02-28T21:36:57.622Z,2.40
2023-02-28T21:39:28.885Z,2.39
2023-02-28T21:42:03.895Z,2.24
2023-02-28T21:44:34.436Z,2.21
2023-02-28T21:47:04.180Z,2.03
2023-02-28T21:49:32.559Z,2.28
2023-02-28T21:52:00.808Z,2.59
2023-02-28T21:54:28.869Z,2.75
2023-02-28T21:56:57.485Z,2.67
2023-02-28T21:59:25.851Z,2.68
2023-02-28T22:01:55.232Z,2.84
2023-02-28T22:04:25.047Z,2.87
2023-02-28T22:06:54.879Z,2.77
2023-02-28T22:09:23.360Z,2.84
2023-02-28T22:11:51.791Z,2.93
2023-02-28T22:14:20.439Z,3.02
2023-02-28T22:16:52.589Z,3.12
2023-02-28T22:19:22.044Z,3.14
2023-02-28T22:21:53.826Z,3.13
2023-02-28T22:24:24.602Z,3.20
2023-02-28T22:26:53.702Z,3.14
2023-02-28T22:29:21.860Z,3.16
2023-02-28T22:31:50.068Z,3.16
2023-02-28T22:34:18.290Z,3.13
2023-02-28T22:36:46.381Z,3.05
2023-02-28T22:39:15.916Z,2.87
2023-02-28T22:41:43.982Z,2.99
2023-02-28T22:44:12.242Z,3.05
2023-02-28T22:46:40.362Z,3.02
2023-02-28T22:49:08.524Z,2.93
2023-02-28T22:51:36.598Z,3.08
2023-02-28T22:54:05.013Z,2.97
2023-02-28T22:56:34.661Z,3.07
2023-02-28T22:59:03.430Z,3.12
2023-02-28T23:01:33.641Z,3.07
2023-02-28T23:04:02.826Z,3.13
2023-02-28T23:06:32.716Z,3.11
2023-02-28T23:09:02.626Z,3.09
2023-02-28T23:11:35.718Z,3.13
2023-02-28T23:14:04.711Z,3.10
2023-02-28T23:16:35.761Z,2.93
2023-02-28T23:19:06.090Z,3.01
2023-02-28T23:21:34.665Z,3.00
2023-02-28T23:24:03.890Z,2.93
2023-02-28T23:26:32.726Z,2.78
2023-02-28T23:29:02.340Z,2.90
2023-02-28T23:31:30.491Z,2.93
2023-02-28T23:33:58.937Z,2.85
2023-02-28T23:36:27.002Z,2.70
2023-02-28T23:38:55.174Z,2.13
2023-02-28T23:41:24.738Z,1.97
2023-02-28T23:43:54.580Z,1.98
2023-02-28T23:46:24.086Z,2.08
2023-02-28T23:48:52.090Z,1.81
2023-02-28T23:51:22.421Z,1.79
2023-02-28T23:53:53.440Z,1.78
2023-02-28T23:56:22.914Z,1.58
2023-02-28T23:58:52.055Z,1.36
